createdAt,value
2022-12-25T00:01:41.577Z,101174.31
2022-12-25T00:04:14.430Z,101170.81
2022-12-25T00:06:47.259Z,101166.44
2022-12-25T00:09:20.047Z,101170.03
2022-12-25T00:11:52.725Z,101164.63
2022-12-25T00:14:25.474Z,101171.63
2022-12-25T00:16:58.341Z,101168.25
2022-12-25T00:19:31.089Z,101170.81
2022-12-25T00:22:03.702Z,101169.81
2022-12-25T00:24:36.472Z,101175.06
2022-12-25T00:27:09.315Z,101168.91
2022-12-25T00:29:42.422Z,101177.75
2022-12-25T00:32:15.232Z,101168.94
2022-12-25T00:34:48.161Z,101167.03
2022-12-25T00:37:21.029Z,101165.28
2022-12-25T00:39:53.772Z,101163.41
2022-12-25T00:42:28.464Z,101159.19
2022-12-25T00:45:01.633Z,101155.66
2022-12-25T00:47:34.566Z,101162.69
2022-12-25T00:50:08.226Z,101157.38
2022-12-25T00:52:40.925Z,101169.69
2022-12-25T00:55:13.755Z,101164.41
2022-12-25T00:57:46.428Z,101159.06
2022-12-25T01:00:19.422Z,101152.81
2022-12-25T01:02:52.295Z,101154.56
2022-12-25T01:05:24.987Z,101154.69
2022-12-25T01:07:57.639Z,101151.06
2022-12-25T01:10:30.370Z,101135.16
2022-12-25T01:13:03.079Z,101143.13
2022-12-25T01:15:37.216Z,101144.06
2022-12-25T01:18:12.892Z,101143.19
2022-12-25T01:20:45.951Z,101144.09
2022-12-25T01:23:18.786Z,101146.75
2022-12-25T01:25:51.399Z,101146.00
2022-12-25T01:28:24.095Z,101143.25
2022-12-25T01:30:56.981Z,101154.56
2022-12-25T01:33:29.940Z,101164.34
2022-12-25T01:36:02.713Z,101173.97
2022-12-25T01:38:35.391Z,101162.50
2022-12-25T01:41:08.120Z,101167.75
2022-12-25T01:44:18.092Z,101159.84
2022-12-25T01:46:50.647Z,101166.75
2022-12-25T01:49:26.111Z,101184.41
2022-12-25T01:52:20.294Z,101179.94
2022-12-25T01:55:04.084Z,101188.13
2022-12-25T01:57:39.567Z,101194.97
2022-12-25T02:00:13.457Z,101193.19
2022-12-25T02:02:46.873Z,101199.38
2022-12-25T02:05:24.894Z,101194.88
2022-12-25T02:08:06.266Z,101193.25
2022-12-25T02:10:39.247Z,101187.88
2022-12-25T02:13:16.508Z,101202.78
2022-12-25T02:16:15.876Z,101199.44
2022-12-25T02:18:58.501Z,101201.84
2022-12-25T02:21:50.774Z,101205.41
2022-12-25T02:24:46.563Z,101200.16
2022-12-25T02:27:55.046Z,101204.53
2022-12-25T02:30:34.681Z,101202.84
2022-12-25T02:33:39.595Z,101199.41
2022-12-25T02:36:22.144Z,101190.47
2022-12-25T02:39:20.958Z,101188.59
2022-12-25T02:41:58.154Z,101181.59
2022-12-25T02:44:52.429Z,101180.03
2022-12-25T02:47:55.273Z,101187.00
2022-12-25T02:50:47.366Z,101172.94
2022-12-25T02:53:38.669Z,101178.97
2022-12-25T02:56:30.981Z,101170.50
2022-12-25T02:59:25.284Z,101163.28
2022-12-25T03:02:17.514Z,101165.09
2022-12-25T03:05:14.425Z,101147.25
2022-12-25T03:07:47.646Z,101141.97
2022-12-25T03:10:41.395Z,101138.75
2022-12-25T03:13:21.888Z,101128.97
2022-12-25T03:16:14.421Z,101105.38
2022-12-25T03:18:47.400Z,101114.25
2022-12-25T03:21:38.522Z,101117.81
2022-12-25T03:24:29.807Z,101110.84
2022-12-25T03:27:02.450Z,101108.38
2022-12-25T03:29:53.715Z,101102.13
2022-12-25T03:32:47.604Z,101096.13
2022-12-25T03:35:47.178Z,101098.81
2022-12-25T03:38:49.743Z,101089.97
2022-12-25T03:42:05.964Z,101090.91
2022-12-25T03:45:40.412Z,101101.63
2022-12-25T03:48:35.345Z,101098.00
2022-12-25T03:51:33.017Z,101110.41
2022-12-25T03:54:29.482Z,101098.94
2022-12-25T03:57:20.817Z,101087.47
2022-12-25T04:00:11.983Z,101085.78
2022-12-25T04:03:03.138Z,101083.09
2022-12-25T04:05:54.343Z,101080.47
2022-12-25T04:08:45.394Z,101077.00
2022-12-25T04:11:36.961Z,101084.94
2022-12-25T04:14:28.185Z,101086.72
2022-12-25T04:17:19.344Z,101076.88
2022-12-25T04:20:10.985Z,101081.44
2022-12-25T04:23:02.167Z,101079.53
2022-12-25T04:25:53.487Z,101064.56
2022-12-25T04:28:44.732Z,101072.50
2022-12-25T04:31:35.951Z,101070.59
2022-12-25T04:34:27.202Z,101078.47
2022-12-25T04:36:59.954Z,101084.66
2022-12-25T04:39:32.551Z,101089.09
2022-12-25T04:42:05.201Z,101088.94
2022-12-25T04:44:37.830Z,101082.84
2022-12-25T04:47:11.648Z,101084.66
2022-12-25T04:49:44.472Z,101078.34
2022-12-25T04:52:17.337Z,101076.56
2022-12-25T04:54:50.056Z,101074.84
2022-12-25T04:57:23.003Z,101077.53
2022-12-25T04:59:55.726Z,101075.78
2022-12-25T05:02:28.641Z,101055.56
2022-12-25T05:05:01.606Z,101061.78
2022-12-25T05:07:34.323Z,101060.09
2022-12-25T05:10:08.172Z,101070.53
2022-12-25T05:12:40.839Z,101065.28
2022-12-25T05:15:13.663Z,101053.66
2022-12-25T05:17:46.358Z,101056.38
2022-12-25T05:20:19.030Z,101067.78
2022-12-25T05:22:51.633Z,101058.03
2022-12-25T05:25:24.237Z,101050.78
2022-12-25T05:27:56.886Z,101041.91
2022-12-25T05:30:29.546Z,101041.13
2022-12-25T05:33:03.620Z,101019.91
2022-12-25T05:35:38.142Z,101017.22
2022-12-25T05:38:10.886Z,101019.00
2022-12-25T05:40:43.635Z,101020.66
2022-12-25T05:43:16.392Z,101023.22
2022-12-25T05:45:49.141Z,101029.34
2022-12-25T05:48:21.932Z,101024.00
2022-12-25T05:50:54.657Z,101023.97
2022-12-25T05:53:27.303Z,101025.13
2022-12-25T05:56:06.733Z,101027.50
2022-12-25T05:58:41.148Z,101027.41
2022-12-25T06:01:18.292Z,101021.91
2022-12-25T06:03:51.319Z,101018.66
2022-12-25T06:06:24.259Z,101009.78
2022-12-25T06:08:57.015Z,101009.66
2022-12-25T06:11:29.624Z,101010.44
2022-12-25T06:14:02.278Z,101005.97
2022-12-25T06:16:38.120Z,101006.00
2022-12-25T06:19:11.324Z,101002.50
2022-12-25T06:21:44.009Z,100991.78
2022-12-25T06:24:21.199Z,100987.38
2022-12-25T06:26:54.406Z,100977.59
2022-12-25T06:29:27.257Z,100984.72
2022-12-25T06:32:00.057Z,100983.88
2022-12-25T06:34:33.004Z,100981.00
2022-12-25T06:37:06.240Z,100976.69
2022-12-25T06:39:38.890Z,100968.09
2022-12-25T06:42:11.474Z,100968.13
2022-12-25T06:44:44.762Z,100955.69
2022-12-25T06:47:17.981Z,100952.13
2022-12-25T06:49:50.653Z,100950.47
2022-12-25T06:52:23.392Z,100942.44
2022-12-25T06:54:56.144Z,100917.81
2022-12-25T06:57:28.906Z,100914.16
2022-12-25T07:00:01.765Z,100914.25
2022-12-25T07:02:35.808Z,100909.06
2022-12-25T07:05:08.753Z,100914.03
2022-12-25T07:07:41.539Z,100915.09
2022-12-25T07:10:14.345Z,100910.66
2022-12-25T07:12:46.952Z,100915.06
2022-12-25T07:15:19.847Z,100935.19
2022-12-25T07:17:52.462Z,100921.06
2022-12-25T07:20:25.279Z,100927.25
2022-12-25T07:22:57.971Z,100939.63
2022-12-25T07:25:36.892Z,100943.88
2022-12-25T07:28:09.944Z,100952.56
2022-12-25T07:30:42.680Z,100957.91
2022-12-25T07:33:16.770Z,100961.31
2022-12-25T07:35:49.446Z,100956.91
2022-12-25T07:38:22.182Z,100962.41
2022-12-25T07:40:55.067Z,100947.69
2022-12-25T07:43:28.196Z,100924.16
2022-12-25T07:46:01.784Z,100919.75
2022-12-25T07:48:36.098Z,100918.78
2022-12-25T07:51:13.822Z,100929.44
2022-12-25T07:53:46.581Z,100932.03
2022-12-25T07:56:20.628Z,100943.25
2022-12-25T07:58:53.412Z,100958.34
2022-12-25T08:01:27.691Z,100975.13
2022-12-25T08:04:03.080Z,100987.41
2022-12-25T08:06:37.391Z,100979.25
2022-12-25T08:09:13.075Z,100991.03
2022-12-25T08:11:47.173Z,100982.94
2022-12-25T08:14:19.959Z,100997.19
2022-12-25T08:16:52.833Z,101015.44
2022-12-25T08:19:25.590Z,101018.94
2022-12-25T08:21:58.285Z,101016.16
2022-12-25T08:24:30.875Z,101007.50
2022-12-25T08:27:04.211Z,100975.75
2022-12-25T08:29:36.945Z,100988.13
2022-12-25T08:32:09.525Z,100984.63
2022-12-25T08:34:42.249Z,101006.66
2022-12-25T08:37:14.868Z,100993.34
2022-12-25T08:39:47.548Z,101000.25
2022-12-25T08:42:20.251Z,101011.72
2022-12-25T08:44:53.137Z,101019.84
2022-12-25T08:47:25.792Z,101027.78
2022-12-25T08:49:58.456Z,101017.31
2022-12-25T08:52:31.547Z,101011.84
2022-12-25T08:55:04.986Z,101002.25
2022-12-25T08:57:39.188Z,100998.13
2022-12-25T09:00:12.700Z,100991.72
2022-12-25T09:02:46.921Z,100999.75
2022-12-25T09:05:23.617Z,100982.13
2022-12-25T09:07:56.781Z,100980.47
2022-12-25T09:10:30.188Z,100973.31
2022-12-25T09:13:04.008Z,100970.78
2022-12-25T09:15:39.105Z,100982.31
2022-12-25T09:18:13.356Z,100991.66
2022-12-25T09:21:04.803Z,100993.34
2022-12-25T09:23:46.154Z,100998.66
2022-12-25T09:26:22.238Z,101005.72
2022-12-25T09:29:04.775Z,100979.16
2022-12-25T09:31:39.456Z,100975.59
2022-12-25T09:34:18.776Z,100986.97
2022-12-25T09:36:52.348Z,100971.28
2022-12-25T09:39:27.780Z,100954.47
2022-12-25T09:42:44.152Z,100950.91
2022-12-25T09:45:28.900Z,100960.59
2022-12-25T09:48:05.336Z,100962.34
2022-12-25T09:50:44.034Z,100964.00
2022-12-25T09:53:25.533Z,100971.84
2022-12-25T09:56:14.250Z,100947.16
2022-12-25T09:58:50.921Z,100945.63
2022-12-25T10:02:11.669Z,100951.09
2022-12-25T10:05:17.376Z,100942.25
2022-12-25T10:08:23.971Z,100928.09
2022-12-25T10:11:44.241Z,100927.00
2022-12-25T10:14:45.915Z,100929.69
2022-12-25T10:21:57.561Z,100939.41
2022-12-25T10:24:45.927Z,100920.63
2022-12-25T10:27:42.824Z,100924.13
2022-12-25T10:30:25.675Z,100916.19
2022-12-25T10:32:59.308Z,100911.91
2022-12-25T10:35:44.288Z,100923.97
2022-12-25T10:38:24.657Z,100903.72
2022-12-25T10:41:21.369Z,100918.88
2022-12-25T10:43:58.795Z,100925.13
2022-12-25T10:46:32.215Z,100908.53
2022-12-25T10:49:08.791Z,100904.06
2022-12-25T10:51:43.592Z,100891.78
2022-12-25T10:54:46.666Z,100878.63
2022-12-25T10:57:32.595Z,100868.16
2022-12-25T11:00:27.520Z,100857.38
2022-12-25T11:03:01.403Z,100864.34
2022-12-25T11:05:40.077Z,100863.31
2022-12-25T11:08:26.808Z,100880.25
2022-12-25T11:11:09.221Z,100879.28
2022-12-25T11:13:59.551Z,100881.69
2022-12-25T11:16:41.092Z,100858.81
2022-12-25T11:20:03.678Z,100850.84
2022-12-25T11:23:03.588Z,100846.38
2022-12-25T11:25:48.537Z,100836.75
2022-12-25T11:31:45.499Z,100809.31
2022-12-25T11:34:33.795Z,100828.69
2022-12-25T11:37:30.436Z,100811.00
2022-12-25T11:40:14.499Z,100800.41
2022-12-25T11:43:23.593Z,100803.00
2022-12-25T11:46:27.568Z,100805.03
2022-12-25T11:49:18.468Z,100807.84
2022-12-25T11:51:57.900Z,100797.25
2022-12-25T11:55:05.372Z,100787.47
2022-12-25T11:57:40.495Z,100776.94
2022-12-25T12:00:16.547Z,100774.34
2022-12-25T12:02:58.817Z,100770.91
2022-12-25T12:05:53.305Z,100783.28
2022-12-25T12:08:27.293Z,100777.00
2022-12-25T12:11:24.035Z,100787.53
2022-12-25T12:14:15.314Z,100792.09
2022-12-25T12:16:48.160Z,100784.09
2022-12-25T12:19:31.142Z,100781.28
2022-12-25T12:22:05.140Z,100771.47
2022-12-25T12:24:44.447Z,100774.03
2022-12-25T12:27:27.809Z,100769.69
2022-12-25T12:30:01.096Z,100759.22
2022-12-25T12:32:43.246Z,100760.16
2022-12-25T12:35:26.571Z,100752.09
2022-12-25T12:38:09.659Z,100737.88
2022-12-25T12:40:52.127Z,100742.13
2022-12-25T12:43:36.131Z,100740.06
2022-12-25T12:46:31.408Z,100749.13
2022-12-25T12:49:16.559Z,100750.78
2022-12-25T12:51:51.081Z,100744.84
2022-12-25T12:54:27.902Z,100745.31
2022-12-25T12:57:04.718Z,100743.75
2022-12-25T12:59:44.482Z,100748.88
2022-12-25T13:02:41.949Z,100745.50
2022-12-25T13:06:01.166Z,100736.22
2022-12-25T13:09:04.851Z,100734.41
2022-12-25T13:11:43.405Z,100721.13
2022-12-25T13:14:20.502Z,100706.50
2022-12-25T13:16:54.752Z,100701.28
2022-12-25T13:19:32.951Z,100691.59
2022-12-25T13:22:28.328Z,100695.75
2022-12-25T13:25:05.125Z,100687.59
2022-12-25T13:28:32.958Z,100690.06
2022-12-25T13:31:27.945Z,100684.16
2022-12-25T13:34:37.609Z,100679.59
2022-12-25T13:37:18.131Z,100676.81
2022-12-25T13:39:58.224Z,100673.31
2022-12-25T13:42:37.799Z,100674.34
2022-12-25T13:45:21.177Z,100674.63
2022-12-25T13:48:12.611Z,100667.78
2022-12-25T13:50:58.780Z,100672.09
2022-12-25T13:54:02.551Z,100665.75
2022-12-25T13:56:36.645Z,100664.03
2022-12-25T13:59:19.132Z,100666.72
2022-12-25T14:02:00.714Z,100665.50
2022-12-25T14:04:45.193Z,100666.53
2022-12-25T14:08:30.405Z,100658.06
2022-12-25T14:11:13.504Z,100650.28
2022-12-25T14:13:51.633Z,100653.69
2022-12-25T14:16:56.671Z,100656.59
2022-12-25T14:19:50.650Z,100654.72
2022-12-25T14:22:48.202Z,100645.94
2022-12-25T14:25:55.951Z,100639.75
2022-12-25T14:29:18.647Z,100634.53
2022-12-25T14:32:05.023Z,100628.44
2022-12-25T14:34:58.066Z,100625.53
2022-12-25T14:37:47.936Z,100630.13
2022-12-25T14:40:39.997Z,100624.56
2022-12-25T14:43:31.091Z,100641.28
2022-12-25T14:49:35.290Z,100645.16
2022-12-25T14:52:39.012Z,100649.47
2022-12-25T14:55:25.322Z,100646.75
2022-12-25T14:58:09.306Z,100651.09
2022-12-25T15:00:42.595Z,100651.97
2022-12-25T15:03:42.484Z,100650.19
2022-12-25T15:06:27.762Z,100642.19
2022-12-25T15:09:22.303Z,100635.41
2022-12-25T15:12:07.319Z,100643.91
2022-12-25T15:14:46.780Z,100653.72
2022-12-25T15:17:38.912Z,100649.31
2022-12-25T15:20:18.178Z,100657.28
2022-12-25T15:23:18.389Z,100651.22
2022-12-25T15:25:51.302Z,100641.75
2022-12-25T15:28:27.872Z,100633.88
2022-12-25T15:31:18.437Z,100635.66
2022-12-25T15:33:53.833Z,100639.22
2022-12-25T15:36:41.291Z,100634.84
2022-12-25T15:39:31.118Z,100642.78
2022-12-25T15:42:48.689Z,100635.88
2022-12-25T15:48:35.535Z,100636.13
2022-12-25T15:51:08.898Z,100643.41
2022-12-25T15:53:41.689Z,100624.84
2022-12-25T15:56:15.816Z,100627.81
2022-12-25T15:58:51.981Z,100614.25
2022-12-25T16:01:25.102Z,100622.13
2022-12-25T16:04:02.712Z,100642.25
2022-12-25T16:06:36.855Z,100624.06
2022-12-25T16:09:25.133Z,100619.59
2022-12-25T16:11:57.864Z,100620.38
2022-12-25T16:14:33.945Z,100621.19
2022-12-25T16:17:13.556Z,100616.91
2022-12-25T16:20:09.276Z,100612.75
2022-12-25T16:22:53.927Z,100617.97
2022-12-25T16:25:26.463Z,100616.88
2022-12-25T16:27:59.141Z,100618.44
2022-12-25T16:30:31.681Z,100610.50
2022-12-25T16:33:04.791Z,100611.53
2022-12-25T16:35:37.469Z,100625.50
2022-12-25T16:38:10.020Z,100628.06
2022-12-25T16:40:44.339Z,100627.16
2022-12-25T16:43:23.626Z,100622.69
2022-12-25T16:45:57.335Z,100627.91
2022-12-25T16:48:29.880Z,100627.06
2022-12-25T16:51:15.971Z,100625.34
2022-12-25T16:53:48.585Z,100612.03
2022-12-25T16:56:25.375Z,100611.25
2022-12-25T16:58:59.340Z,100611.53
2022-12-25T17:01:32.036Z,100603.66
2022-12-25T17:04:05.120Z,100602.75
2022-12-25T17:06:38.029Z,100616.72
2022-12-25T17:09:10.557Z,100619.53
2022-12-25T17:11:43.082Z,100625.50
2022-12-25T17:14:15.686Z,100621.91
2022-12-25T17:16:48.431Z,100631.59
2022-12-25T17:19:23.728Z,100638.72
2022-12-25T17:21:56.475Z,100626.25
2022-12-25T17:24:29.895Z,100621.78
2022-12-25T17:27:02.431Z,100616.50
2022-12-25T17:29:43.781Z,100619.97
2022-12-25T17:32:16.377Z,100610.34
2022-12-25T17:34:48.947Z,100596.22
2022-12-25T17:37:22.108Z,100603.25
2022-12-25T17:39:54.646Z,100602.41
2022-12-25T17:42:27.191Z,100608.56
2022-12-25T17:45:03.539Z,100603.38
2022-12-25T17:47:36.115Z,100612.19
2022-12-25T17:50:08.845Z,100610.38
2022-12-25T17:52:41.409Z,100613.97
2022-12-25T17:55:13.903Z,100605.91
2022-12-25T17:57:46.479Z,100608.69
2022-12-25T18:00:19.374Z,100596.38
2022-12-25T18:02:52.790Z,100598.94
2022-12-25T18:05:25.428Z,100593.56
2022-12-25T18:07:58.043Z,100585.72
2022-12-25T18:10:36.411Z,100583.13
2022-12-25T18:13:11.877Z,100590.03
2022-12-25T18:15:44.382Z,100597.97
2022-12-25T18:18:16.903Z,100598.03
2022-12-25T18:20:49.370Z,100601.66
2022-12-25T18:23:22.069Z,100605.19
2022-12-25T18:25:54.744Z,100595.72
2022-12-25T18:28:27.258Z,100604.44
2022-12-25T18:31:00.015Z,100615.03
2022-12-25T18:33:32.564Z,100620.44
2022-12-25T18:36:05.553Z,100616.84
2022-12-25T18:38:38.143Z,100618.44
2022-12-25T18:41:11.392Z,100620.09
2022-12-25T18:43:52.402Z,100615.03
2022-12-25T18:46:28.059Z,100620.06
2022-12-25T18:49:00.694Z,100623.09
2022-12-25T18:51:37.107Z,100630.97
2022-12-25T18:54:09.868Z,100624.75
2022-12-25T18:56:42.501Z,100619.53
2022-12-25T18:59:15.149Z,100620.44
2022-12-25T19:01:47.793Z,100621.91
2022-12-25T19:04:20.435Z,100619.34
2022-12-25T19:06:52.950Z,100626.91
2022-12-25T19:09:25.518Z,100617.38
2022-12-25T19:11:58.248Z,100607.38
2022-12-25T19:14:30.818Z,100609.19
2022-12-25T19:17:20.342Z,100598.78
2022-12-25T19:19:52.854Z,100597.13
2022-12-25T19:22:25.412Z,100593.63
2022-12-25T19:24:57.994Z,100599.56
2022-12-25T19:27:30.627Z,100612.03
2022-12-25T19:30:03.584Z,100608.50
2022-12-25T19:32:36.130Z,100614.50
2022-12-25T19:35:08.864Z,100618.59
2022-12-25T19:37:41.396Z,100634.00
2022-12-25T19:40:13.906Z,100628.69
2022-12-25T19:42:46.454Z,100624.31
2022-12-25T19:45:19.036Z,100608.28
2022-12-25T19:47:51.509Z,100617.47
2022-12-25T19:50:30.573Z,100623.41
2022-12-25T19:53:03.093Z,100627.84
2022-12-25T19:55:35.619Z,100639.28
2022-12-25T19:58:08.341Z,100635.53
2022-12-25T20:00:41.817Z,100641.66
2022-12-25T20:03:14.552Z,100629.34
2022-12-25T20:05:47.091Z,100621.03
2022-12-25T20:08:19.987Z,100637.28
2022-12-25T20:10:52.725Z,100644.44
2022-12-25T20:13:25.937Z,100639.81
2022-12-25T20:16:01.739Z,100635.31
2022-12-25T20:18:34.852Z,100627.16
2022-12-25T20:21:14.110Z,100629.22
2022-12-25T20:23:51.873Z,100640.84
2022-12-25T20:26:29.270Z,100638.03
2022-12-25T20:29:03.199Z,100635.59
2022-12-25T20:31:36.179Z,100640.34
2022-12-25T20:34:11.764Z,100629.97
2022-12-25T20:36:45.353Z,100624.66
2022-12-25T20:39:17.979Z,100640.06
2022-12-25T20:41:50.504Z,100640.06
2022-12-25T20:44:23.339Z,100646.91
2022-12-25T20:46:59.249Z,100652.22
2022-12-25T20:49:32.790Z,100647.94
2022-12-25T20:52:05.998Z,100651.56
2022-12-25T20:54:38.817Z,100643.69
2022-12-25T20:57:11.620Z,100648.13
2022-12-25T20:59:44.263Z,100650.91
2022-12-25T21:02:35.707Z,100648.78
2022-12-25T21:05:12.290Z,100649.66
2022-12-25T21:07:44.913Z,100643.06
2022-12-25T21:10:17.538Z,100651.41
2022-12-25T21:12:55.384Z,100654.72
2022-12-25T21:15:28.077Z,100664.38
2022-12-25T21:18:02.574Z,100668.59
2022-12-25T21:20:35.212Z,100678.63
2022-12-25T21:23:07.815Z,100672.28
2022-12-25T21:25:40.654Z,100681.59
2022-12-25T21:28:13.632Z,100684.03
2022-12-25T21:30:46.226Z,100680.50
2022-12-25T21:33:37.395Z,100684.09
2022-12-25T21:36:11.662Z,100693.59
2022-12-25T21:38:45.481Z,100687.34
2022-12-25T21:41:18.161Z,100688.16
2022-12-25T21:43:51.952Z,100698.63
2022-12-25T21:46:26.012Z,100706.06
2022-12-25T21:48:59.893Z,100708.06
2022-12-25T21:51:52.727Z,100701.78
2022-12-25T21:54:25.289Z,100705.28
2022-12-25T21:56:57.856Z,100696.09
2022-12-25T21:59:30.451Z,100715.88
2022-12-25T22:02:11.209Z,100717.31
2022-12-25T22:04:44.259Z,100719.25
2022-12-25T22:07:19.986Z,100719.00
2022-12-25T22:09:52.674Z,100720.06
2022-12-25T22:12:43.848Z,100719.06
2022-12-25T22:15:16.408Z,100724.03
2022-12-25T22:18:07.778Z,100709.34
2022-12-25T22:20:40.420Z,100723.56
2022-12-25T22:23:14.317Z,100728.94
2022-12-25T22:25:46.970Z,100726.84
2022-12-25T22:28:19.592Z,100727.06
2022-12-25T22:30:52.320Z,100709.22
2022-12-25T22:33:27.912Z,100701.28
2022-12-25T22:36:09.561Z,100688.75
2022-12-25T22:38:43.137Z,100693.03
2022-12-25T22:41:15.775Z,100708.25
2022-12-25T22:44:16.475Z,100713.44
2022-12-25T22:46:40.892Z,100712.53
2022-12-25T22:49:15.433Z,100709.47
2022-12-25T22:51:50.217Z,100712.47
2022-12-25T22:54:24.452Z,100718.41
2022-12-25T22:56:59.235Z,100724.13
2022-12-25T22:59:33.012Z,100709.75
2022-12-25T23:02:05.790Z,100722.47
2022-12-25T23:04:38.507Z,100731.53
2022-12-25T23:07:14.267Z,100732.53
2022-12-25T23:09:46.845Z,100721.00
2022-12-25T23:12:38.256Z,100721.13
2022-12-25T23:15:11.005Z,100726.47
2022-12-25T23:18:02.441Z,100725.72
2022-12-25T23:20:55.577Z,100713.22
2022-12-25T23:23:47.014Z,100696.13
2022-12-25T23:26:21.016Z,100708.56
2022-12-25T23:29:12.429Z,100701.66
2022-12-25T23:31:45.134Z,100693.78
2022-12-25T23:34:17.755Z,100706.19
2022-12-25T23:36:50.332Z,100696.44
2022-12-25T23:39:22.964Z,100698.38
2022-12-25T23:41:56.007Z,100707.56
2022-12-25T23:44:29.590Z,100724.03
2022-12-25T23:47:03.004Z,100721.59
2022-12-25T23:49:35.568Z,100732.31
2022-12-25T23:52:12.939Z,100728.66
2022-12-25T23:54:45.498Z,100726.06
2022-12-25T23:57:18.074Z,100726.00
2022-12-25T23:59:50.749Z,100746.22
